createdAt,value
2023-03-07T00:02:08.698Z,38.77
2023-03-07T00:04:45.474Z,43.17
2023-03-07T00:07:18.611Z,41.40
2023-03-07T00:09:51.338Z,42.70
2023-03-07T00:12:23.710Z,40.27
2023-03-07T00:14:57.102Z,42.10
2023-03-07T00:17:29.537Z,39.70
2023-03-07T00:22:33.598Z,39.80
2023-03-07T00:25:07.197Z,40.00
2023-03-07T00:27:39.772Z,41.67
2023-03-07T00:30:14.003Z,42.55
2023-03-07T00:32:46.568Z,41.30
2023-03-07T00:35:19.952Z,43.90
2023-03-07T00:37:52.948Z,41.70
2023-03-07T00:40:25.543Z,42.80
2023-03-07T00:42:58.294Z,42.80
2023-03-07T00:45:31.750Z,42.70
2023-03-07T00:48:04.471Z,43.17
2023-03-07T00:50:37.327Z,43.15
2023-03-07T00:53:10.237Z,43.70
2023-03-07T00:55:43.632Z,44.05
2023-03-07T00:58:16.618Z,45.25
2023-03-07T01:00:49.399Z,44.23
2023-03-07T01:03:23.685Z,44.20
2023-03-07T01:05:56.391Z,44.30
2023-03-07T01:08:29.169Z,43.17
2023-03-07T01:11:02.563Z,41.80
2023-03-07T01:13:36.451Z,40.50
2023-03-07T01:16:13.760Z,42.77
2023-03-07T01:18:49.637Z,42.87
2023-03-07T01:21:23.511Z,45.05
2023-03-07T01:23:57.331Z,43.13
2023-03-07T01:26:30.949Z,41.40
2023-03-07T01:29:04.935Z,42.30
2023-03-07T01:31:40.420Z,42.70
2023-03-07T01:34:13.765Z,43.57
2023-03-07T01:36:46.789Z,40.87
2023-03-07T01:39:19.527Z,41.47
2023-03-07T01:42:02.340Z,43.25
2023-03-07T01:44:59.700Z,41.25
2023-03-07T01:47:36.575Z,42.83
2023-03-07T01:50:11.896Z,42.35
2023-03-07T01:52:47.254Z,40.93
2023-03-07T01:55:20.941Z,43.77
2023-03-07T01:57:57.130Z,43.90
2023-03-07T02:00:30.300Z,43.25
2023-03-07T02:03:05.408Z,42.05
2023-03-07T02:05:41.035Z,41.45
2023-03-07T02:08:15.396Z,44.10
2023-03-07T02:10:48.635Z,42.90
2023-03-07T02:13:21.986Z,43.00
2023-03-07T02:15:54.354Z,44.60
2023-03-07T02:18:28.456Z,44.27
2023-03-07T02:21:04.828Z,43.50
2023-03-07T02:23:42.016Z,44.75
2023-03-07T02:26:18.454Z,43.40
2023-03-07T02:28:51.392Z,42.47
2023-03-07T02:31:24.551Z,44.03
2023-03-07T02:33:57.748Z,43.55
2023-03-07T02:36:31.476Z,42.80
2023-03-07T02:39:11.284Z,43.85
2023-03-07T02:41:44.687Z,44.03
2023-03-07T02:44:24.222Z,45.05
2023-03-07T02:46:56.651Z,45.90
2023-03-07T02:49:31.620Z,44.85
2023-03-07T02:52:05.510Z,41.90
2023-03-07T02:54:38.693Z,45.40
2023-03-07T02:57:11.810Z,45.50
2023-03-07T02:59:45.211Z,41.60
2023-03-07T03:02:17.333Z,43.65
2023-03-07T03:07:21.493Z,43.10
2023-03-07T03:09:54.275Z,44.87
2023-03-07T03:12:27.057Z,45.55
2023-03-07T03:15:00.466Z,45.77
2023-03-07T03:17:33.444Z,43.23
2023-03-07T03:20:11.952Z,44.37
2023-03-07T03:22:44.536Z,44.10
2023-03-07T03:25:17.918Z,45.55
2023-03-07T03:27:51.927Z,45.63
2023-03-07T03:30:25.121Z,43.35
2023-03-07T03:32:57.703Z,43.65
2023-03-07T03:35:33.962Z,46.10
2023-03-07T03:38:08.779Z,44.07
2023-03-07T03:40:41.969Z,44.07
2023-03-07T03:43:14.752Z,44.00
2023-03-07T03:45:54.907Z,44.30
2023-03-07T03:48:28.768Z,43.43
2023-03-07T03:51:05.198Z,45.45
2023-03-07T03:53:38.802Z,44.10
2023-03-07T03:56:13.306Z,43.20
2023-03-07T03:58:48.296Z,43.35
2023-03-07T04:01:23.256Z,43.75
2023-03-07T04:03:56.243Z,44.70
2023-03-07T04:06:29.483Z,42.97
2023-03-07T04:09:05.338Z,45.03
2023-03-07T04:11:38.469Z,44.05
2023-03-07T04:14:13.090Z,46.73
2023-03-07T04:16:45.991Z,47.73
2023-03-07T04:19:19.663Z,46.55
2023-03-07T04:21:53.473Z,45.25
2023-03-07T04:24:26.668Z,44.23
2023-03-07T04:26:59.034Z,42.77
2023-03-07T04:29:32.224Z,43.60
2023-03-07T04:32:16.533Z,41.67
2023-03-07T04:34:49.254Z,41.08
2023-03-07T04:37:22.033Z,39.65
2023-03-07T04:39:55.016Z,40.50
2023-03-07T04:42:27.802Z,42.55
2023-03-07T04:45:01.418Z,40.85
2023-03-07T04:47:34.535Z,41.93
2023-03-07T04:50:08.801Z,41.10
2023-03-07T04:52:42.810Z,40.37
2023-03-07T04:55:15.592Z,40.70
2023-03-07T04:57:49.803Z,37.90
2023-03-07T05:00:24.474Z,39.05
2023-03-07T05:03:02.328Z,39.87
2023-03-07T05:05:37.573Z,40.90
2023-03-07T05:08:11.207Z,40.10
2023-03-07T05:10:44.150Z,41.00
2023-03-07T05:13:17.134Z,39.70
2023-03-07T05:15:52.808Z,39.10
2023-03-07T05:18:27.278Z,40.60
2023-03-07T05:21:01.820Z,38.30
2023-03-07T05:23:35.623Z,40.40
2023-03-07T05:26:09.838Z,37.80
2023-03-07T05:28:43.849Z,40.10
2023-03-07T05:31:18.465Z,40.17
2023-03-07T05:33:52.684Z,40.23
2023-03-07T05:36:25.868Z,40.50
2023-03-07T05:38:59.065Z,40.85
2023-03-07T05:41:31.636Z,40.55
2023-03-07T05:44:05.437Z,39.50
2023-03-07T05:46:38.048Z,40.15
2023-03-07T05:49:10.795Z,41.55
2023-03-07T05:51:43.574Z,41.50
2023-03-07T05:54:16.358Z,41.20
2023-03-07T05:56:50.772Z,41.35
2023-03-07T05:59:24.658Z,40.45
2023-03-07T06:01:58.789Z,42.00
2023-03-07T06:04:32.804Z,41.40
2023-03-07T06:07:05.173Z,45.60
2023-03-07T06:09:39.999Z,41.90
2023-03-07T06:12:14.624Z,53.25
2023-03-07T06:14:47.201Z,56.60
2023-03-07T06:19:50.708Z,49.87
2023-03-07T06:22:23.489Z,51.05
2023-03-07T06:24:57.495Z,47.25
2023-03-07T06:27:33.405Z,48.90
2023-03-07T06:30:07.365Z,49.70
2023-03-07T06:32:40.593Z,50.15
2023-03-07T06:35:13.532Z,48.55
2023-03-07T06:37:46.328Z,47.80
2023-03-07T06:40:20.120Z,49.30
2023-03-07T06:42:55.032Z,49.65
2023-03-07T06:45:29.581Z,49.25
2023-03-07T06:48:02.003Z,47.85
2023-03-07T06:50:35.983Z,48.30
2023-03-07T06:53:09.750Z,45.43
2023-03-07T06:55:43.988Z,45.65
2023-03-07T06:58:18.179Z,46.63
2023-03-07T07:00:51.779Z,43.85
2023-03-07T07:03:24.353Z,45.83
2023-03-07T07:05:58.364Z,48.65
2023-03-07T07:08:31.157Z,48.80
2023-03-07T07:11:04.737Z,47.83
2023-03-07T07:13:37.722Z,46.25
2023-03-07T07:16:11.872Z,47.60
2023-03-07T07:18:45.330Z,41.40
2023-03-07T07:21:18.323Z,37.50
2023-03-07T07:23:52.328Z,39.40
2023-03-07T07:26:26.951Z,37.45
2023-03-07T07:28:59.937Z,38.35
2023-03-07T07:31:32.529Z,41.50
2023-03-07T07:34:06.109Z,40.20
2023-03-07T07:36:39.101Z,34.70
2023-03-07T07:39:12.287Z,34.20
2023-03-07T07:41:48.135Z,36.10
2023-03-07T07:44:21.534Z,36.60
2023-03-07T07:47:03.332Z,31.55
2023-03-07T07:49:35.901Z,30.35
2023-03-07T07:52:09.298Z,28.80
2023-03-07T07:54:42.496Z,27.70
2023-03-07T07:57:16.083Z,29.35
2023-03-07T07:59:50.916Z,29.03
2023-03-07T08:02:24.269Z,27.30
2023-03-07T08:04:56.886Z,27.40
2023-03-07T08:07:29.665Z,24.95
2023-03-07T08:10:02.668Z,23.70
2023-03-07T08:12:36.044Z,25.90
2023-03-07T08:15:10.206Z,24.90
2023-03-07T08:17:42.794Z,26.27
2023-03-07T08:20:16.026Z,24.63
2023-03-07T08:22:49.831Z,21.97
2023-03-07T08:25:24.051Z,22.60
2023-03-07T08:27:58.278Z,23.60
2023-03-07T08:30:31.552Z,24.10
2023-03-07T08:33:04.031Z,24.25
2023-03-07T08:35:37.229Z,23.62
2023-03-07T08:38:10.404Z,23.30
2023-03-07T08:40:43.593Z,22.22
2023-03-07T08:43:16.170Z,20.30
2023-03-07T08:45:51.696Z,19.15
2023-03-07T08:48:25.215Z,21.05
2023-03-07T08:50:58.192Z,22.75
2023-03-07T08:53:30.769Z,23.57
2023-03-07T08:56:08.908Z,23.92
2023-03-07T08:58:41.244Z,23.00
2023-03-07T09:03:46.189Z,22.45
2023-03-07T09:06:20.610Z,21.85
2023-03-07T09:08:53.501Z,20.75
2023-03-07T09:11:26.996Z,21.33
2023-03-07T09:13:59.770Z,21.45
2023-03-07T09:16:32.604Z,19.92
2023-03-07T09:19:05.967Z,19.75
2023-03-07T09:21:38.723Z,18.00
2023-03-07T09:24:11.730Z,19.00
2023-03-07T09:26:44.284Z,20.55
2023-03-07T09:29:17.480Z,20.10
2023-03-07T09:31:51.350Z,19.20
2023-03-07T09:34:23.916Z,18.42
2023-03-07T09:36:57.049Z,17.35
2023-03-07T09:39:29.419Z,18.10
2023-03-07T09:42:06.469Z,17.07
2023-03-07T09:44:53.360Z,15.78
2023-03-07T09:47:33.896Z,14.40
2023-03-07T09:50:12.698Z,15.83
2023-03-07T09:52:45.272Z,16.60
2023-03-07T09:55:20.305Z,15.50
2023-03-07T09:57:53.500Z,15.58
2023-03-07T10:00:28.284Z,14.85
2023-03-07T10:03:06.657Z,15.60
2023-03-07T10:05:40.788Z,12.93
2023-03-07T10:08:14.817Z,14.25
2023-03-07T10:10:50.864Z,13.53
2023-03-07T10:13:34.345Z,13.83
2023-03-07T10:16:12.426Z,12.00
2023-03-07T10:18:53.629Z,11.25
2023-03-07T10:21:30.013Z,11.33
2023-03-07T10:24:17.054Z,10.98
2023-03-07T10:26:52.676Z,10.95
2023-03-07T10:29:26.506Z,10.13
2023-03-07T10:32:04.655Z,11.68
2023-03-07T10:34:40.757Z,10.82
2023-03-07T10:37:15.855Z,11.85
2023-03-07T10:39:51.972Z,10.43
2023-03-07T10:42:25.513Z,10.08
2023-03-07T10:44:59.109Z,10.65
2023-03-07T10:47:31.686Z,9.80
2023-03-07T10:50:09.546Z,9.60
2023-03-07T10:52:44.352Z,7.15
2023-03-07T10:55:34.355Z,6.22
2023-03-07T10:58:17.538Z,7.12
2023-03-07T11:01:00.144Z,6.17
2023-03-07T11:03:49.644Z,6.70
2023-03-07T11:06:33.204Z,6.70
2023-03-07T11:09:16.213Z,7.20
2023-03-07T11:11:53.788Z,7.37
2023-03-07T11:14:26.939Z,6.75
2023-03-07T11:17:00.658Z,7.17
2023-03-07T11:19:38.117Z,6.90
2023-03-07T11:22:21.598Z,6.60
2023-03-07T11:24:56.250Z,6.72
2023-03-07T11:27:34.208Z,6.95
2023-03-07T11:30:22.741Z,7.12
2023-03-07T11:32:58.803Z,6.47
2023-03-07T11:35:38.584Z,6.87
2023-03-07T11:38:15.379Z,7.12
2023-03-07T11:40:52.240Z,7.00
2023-03-07T11:43:25.687Z,6.15
2023-03-07T11:46:03.189Z,6.15
2023-03-07T11:48:43.481Z,7.03
2023-03-07T11:51:25.278Z,6.08
2023-03-07T11:54:02.795Z,4.95
2023-03-07T11:56:37.013Z,4.37
2023-03-07T11:59:32.764Z,3.95
2023-03-07T12:02:07.760Z,4.50
2023-03-07T12:04:54.589Z,5.20
2023-03-07T12:07:43.406Z,5.00
2023-03-07T12:10:25.692Z,5.17
2023-03-07T12:13:03.510Z,5.15
2023-03-07T12:15:38.260Z,4.15
2023-03-07T12:18:23.049Z,4.05
2023-03-07T12:21:04.396Z,4.75
2023-03-07T12:23:39.670Z,3.95
2023-03-07T12:26:14.986Z,4.17
2023-03-07T12:28:51.203Z,4.00
2023-03-07T12:31:25.979Z,3.70
2023-03-07T12:34:02.122Z,3.58
2023-03-07T12:36:36.205Z,3.02
2023-03-07T12:39:16.226Z,3.60
2023-03-07T12:41:53.792Z,5.03
2023-03-07T12:44:32.247Z,3.65
2023-03-07T12:47:06.918Z,4.22
2023-03-07T12:49:49.817Z,3.45
2023-03-07T12:52:31.460Z,4.08
2023-03-07T12:55:08.829Z,4.25
2023-03-07T12:57:45.012Z,3.25
2023-03-07T13:00:19.684Z,3.10
2023-03-07T13:02:57.119Z,3.47
2023-03-07T13:05:30.766Z,3.37
2023-03-07T13:08:04.316Z,3.37
2023-03-07T13:10:37.717Z,3.92
2023-03-07T13:13:40.192Z,3.45
2023-03-07T13:16:14.046Z,2.85
2023-03-07T13:18:46.773Z,3.67
2023-03-07T13:21:34.921Z,3.42
2023-03-07T13:24:34.961Z,3.20
2023-03-07T13:27:15.626Z,3.98
2023-03-07T13:30:18.385Z,3.50
2023-03-07T13:33:00.793Z,3.80
2023-03-07T13:35:50.592Z,3.90
2023-03-07T13:38:34.493Z,2.98
2023-03-07T13:41:07.445Z,3.17
2023-03-07T13:44:00.121Z,2.87
2023-03-07T13:46:46.744Z,3.22
2023-03-07T13:49:51.271Z,3.65
2023-03-07T13:52:40.650Z,3.02
2023-03-07T13:55:21.105Z,3.08
2023-03-07T13:57:56.674Z,3.95
2023-03-07T14:00:37.386Z,3.15
2023-03-07T14:03:18.833Z,3.60
2023-03-07T14:05:51.574Z,3.75
2023-03-07T14:08:27.217Z,3.50
2023-03-07T14:10:59.809Z,3.52
2023-03-07T14:13:51.527Z,3.22
2023-03-07T14:16:29.548Z,3.33
2023-03-07T14:19:09.901Z,3.92
2023-03-07T14:21:48.486Z,3.90
2023-03-07T14:24:33.900Z,4.20
2023-03-07T14:27:07.555Z,4.00
2023-03-07T14:29:48.362Z,4.42
2023-03-07T14:32:25.884Z,4.17
2023-03-07T14:34:58.753Z,4.22
2023-03-07T14:37:32.766Z,4.35
2023-03-07T14:40:11.564Z,4.60
2023-03-07T14:42:48.022Z,4.28
2023-03-07T14:45:22.505Z,4.70
2023-03-07T14:48:06.965Z,4.67
2023-03-07T14:50:44.317Z,5.20
2023-03-07T14:53:18.429Z,5.03
2023-03-07T14:55:52.104Z,4.90
2023-03-07T14:58:25.496Z,5.85
2023-03-07T15:01:02.572Z,5.58
2023-03-07T15:03:35.152Z,4.67
2023-03-07T15:06:15.037Z,6.05
2023-03-07T15:08:49.807Z,4.70
2023-03-07T15:11:33.553Z,5.55
2023-03-07T15:14:07.360Z,5.83
2023-03-07T15:16:41.603Z,5.47
2023-03-07T15:19:16.821Z,7.15
2023-03-07T15:21:52.341Z,7.17
2023-03-07T15:24:28.398Z,5.60
2023-03-07T15:27:01.526Z,5.22
2023-03-07T15:29:35.320Z,7.03
2023-03-07T15:32:28.399Z,5.83
2023-03-07T15:35:05.249Z,6.97
2023-03-07T15:37:38.647Z,7.58
2023-03-07T15:40:26.591Z,8.80
2023-03-07T15:42:59.980Z,9.70
2023-03-07T15:45:33.686Z,8.40
2023-03-07T15:48:11.482Z,9.35
2023-03-07T15:50:44.667Z,13.70
2023-03-07T15:53:22.205Z,12.60
2023-03-07T15:55:58.271Z,10.30
2023-03-07T15:58:32.224Z,9.18
2023-03-07T16:01:09.310Z,8.35
2023-03-07T16:03:49.439Z,8.55
2023-03-07T16:06:40.689Z,8.65
2023-03-07T16:09:14.273Z,7.37
2023-03-07T16:11:47.672Z,7.35
2023-03-07T16:14:23.543Z,7.08
2023-03-07T16:16:57.919Z,7.53
2023-03-07T16:19:30.362Z,10.20
2023-03-07T16:22:03.297Z,10.18
2023-03-07T16:24:35.883Z,11.45
2023-03-07T16:27:13.032Z,11.05
2023-03-07T16:29:45.730Z,9.80
2023-03-07T16:32:19.576Z,9.20
2023-03-07T16:34:53.336Z,10.28
2023-03-07T16:37:26.197Z,11.12
2023-03-07T16:39:58.903Z,21.95
2023-03-07T16:42:31.471Z,26.62
2023-03-07T16:45:06.365Z,37.90
2023-03-07T16:47:39.082Z,35.90
2023-03-07T16:50:15.546Z,35.73
2023-03-07T16:52:48.740Z,37.33
2023-03-07T16:55:21.545Z,37.38
2023-03-07T16:57:55.523Z,37.38
2023-03-07T17:00:30.027Z,38.70
2023-03-07T17:03:03.862Z,36.95
2023-03-07T17:05:36.531Z,36.88
2023-03-07T17:08:09.783Z,35.92
2023-03-07T17:10:44.591Z,34.95
2023-03-07T17:13:18.561Z,30.40
2023-03-07T17:15:51.206Z,30.02
2023-03-07T17:18:23.926Z,27.05
2023-03-07T17:20:57.314Z,24.82
2023-03-07T17:23:30.503Z,27.32
2023-03-07T17:26:03.701Z,24.05
2023-03-07T17:28:37.087Z,23.12
2023-03-07T17:31:10.543Z,24.43
2023-03-07T17:33:43.262Z,23.60
2023-03-07T17:36:16.253Z,23.90
2023-03-07T17:38:49.651Z,24.15
2023-03-07T17:41:22.221Z,23.85
2023-03-07T17:43:55.821Z,24.82
2023-03-07T17:46:28.404Z,26.17
2023-03-07T17:49:01.179Z,25.25
2023-03-07T17:51:35.186Z,28.12
2023-03-07T17:54:09.196Z,27.13
2023-03-07T17:56:42.177Z,27.90
2023-03-07T17:59:14.756Z,28.02
2023-03-07T18:01:48.417Z,27.87
2023-03-07T18:04:21.547Z,27.73
2023-03-07T18:06:54.526Z,27.42
2023-03-07T18:09:27.923Z,29.98
2023-03-07T18:12:01.321Z,31.27
2023-03-07T18:14:34.301Z,32.10
2023-03-07T18:17:07.494Z,33.88
2023-03-07T18:19:40.433Z,30.55
2023-03-07T18:22:13.665Z,29.55
2023-03-07T18:24:47.062Z,28.40
2023-03-07T18:27:20.659Z,26.37
2023-03-07T18:29:54.261Z,22.82
2023-03-07T18:32:29.144Z,18.82
2023-03-07T18:35:01.940Z,17.27
2023-03-07T18:37:36.899Z,15.08
2023-03-07T18:40:13.170Z,16.50
2023-03-07T18:42:47.406Z,16.48
2023-03-07T18:45:20.864Z,16.73
2023-03-07T18:47:53.964Z,17.15
2023-03-07T18:50:27.352Z,16.95
2023-03-07T18:53:01.025Z,18.77
2023-03-07T18:55:34.958Z,19.23
2023-03-07T18:58:08.147Z,18.32
2023-03-07T19:00:41.611Z,19.07
2023-03-07T19:03:14.061Z,19.10
2023-03-07T19:05:47.586Z,17.62
2023-03-07T19:08:22.755Z,20.12
2023-03-07T19:10:55.537Z,22.50
2023-03-07T19:13:29.135Z,24.15
2023-03-07T19:16:05.870Z,23.35
2023-03-07T19:18:38.588Z,21.93
2023-03-07T19:21:12.804Z,23.40
2023-03-07T19:23:45.991Z,23.80
2023-03-07T19:26:19.646Z,23.35
2023-03-07T19:28:54.091Z,23.42
2023-03-07T19:31:28.295Z,23.90
2023-03-07T19:34:03.125Z,23.77
2023-03-07T19:36:37.478Z,23.12
2023-03-07T19:39:11.689Z,22.67
2023-03-07T19:41:48.356Z,24.00
2023-03-07T19:44:22.367Z,22.70
2023-03-07T19:46:56.168Z,20.63
2023-03-07T19:49:29.153Z,22.27
2023-03-07T19:52:01.934Z,25.10
2023-03-07T19:54:35.342Z,23.85
2023-03-07T19:57:09.544Z,24.95
2023-03-07T19:59:42.794Z,24.02
2023-03-07T20:02:16.331Z,25.23
2023-03-07T20:04:49.326Z,24.82
2023-03-07T20:07:22.707Z,26.30
2023-03-07T20:09:55.695Z,25.90
2023-03-07T20:12:32.294Z,25.43
2023-03-07T20:15:05.354Z,26.57
2023-03-07T20:17:38.547Z,26.57
2023-03-07T20:20:13.583Z,25.17
2023-03-07T20:22:46.763Z,25.50
2023-03-07T20:25:19.959Z,26.62
2023-03-07T20:27:52.945Z,26.95
2023-03-07T20:30:26.337Z,27.48
2023-03-07T20:33:00.754Z,26.63
2023-03-07T20:35:34.587Z,27.37
2023-03-07T20:38:08.165Z,26.87
2023-03-07T20:40:42.167Z,26.97
2023-03-07T20:43:14.945Z,26.62
2023-03-07T20:45:47.728Z,25.60
2023-03-07T20:48:19.854Z,27.33
2023-03-07T20:50:53.291Z,26.07
2023-03-07T20:53:26.484Z,26.93
2023-03-07T20:56:03.659Z,27.95
2023-03-07T20:58:36.959Z,27.37
2023-03-07T21:01:10.565Z,27.17
2023-03-07T21:03:43.160Z,27.80
2023-03-07T21:06:16.936Z,26.40
2023-03-07T21:08:49.625Z,28.33
2023-03-07T21:11:22.561Z,28.05
2023-03-07T21:13:55.277Z,27.50
2023-03-07T21:16:28.728Z,29.10
2023-03-07T21:19:02.495Z,29.40
2023-03-07T21:21:36.280Z,29.45
2023-03-07T21:24:12.186Z,32.60
2023-03-07T21:26:45.329Z,36.67
2023-03-07T21:29:18.514Z,34.80
2023-03-07T21:31:52.133Z,33.90
2023-03-07T21:34:24.682Z,36.00
2023-03-07T21:36:57.667Z,36.65
2023-03-07T21:39:30.446Z,36.85
2023-03-07T21:42:03.635Z,34.70
2023-03-07T21:44:36.830Z,35.10
2023-03-07T21:47:10.047Z,34.97
2023-03-07T21:49:43.206Z,35.35
2023-03-07T21:52:15.642Z,36.10
2023-03-07T21:54:48.562Z,36.05
2023-03-07T21:57:21.957Z,37.47
2023-03-07T21:59:54.528Z,36.20
2023-03-07T22:02:27.113Z,33.87
2023-03-07T22:04:59.884Z,35.77
2023-03-07T22:07:32.663Z,31.97
2023-03-07T22:10:04.929Z,33.65
2023-03-07T22:15:11.358Z,34.20
2023-03-07T22:17:44.214Z,36.60
2023-03-07T22:20:17.590Z,35.35
2023-03-07T22:22:50.164Z,34.00
2023-03-07T22:25:23.767Z,34.60
2023-03-07T22:27:56.952Z,34.83
2023-03-07T22:30:29.955Z,34.10
2023-03-07T22:33:03.332Z,34.40
2023-03-07T22:35:36.552Z,31.40
2023-03-07T22:38:09.096Z,31.83
2023-03-07T22:40:42.084Z,31.30
2023-03-07T22:43:14.863Z,31.00
2023-03-07T22:45:51.050Z,30.50
2023-03-07T22:48:23.749Z,30.15
2023-03-07T22:53:29.170Z,26.90
2023-03-07T22:56:02.266Z,27.87
2023-03-07T22:58:35.024Z,26.85
2023-03-07T23:01:14.170Z,26.00
2023-03-07T23:03:46.729Z,25.70
2023-03-07T23:06:19.918Z,26.80
2023-03-07T23:08:53.580Z,25.85
2023-03-07T23:11:27.730Z,25.60
2023-03-07T23:14:00.307Z,26.30
2023-03-07T23:16:34.353Z,25.50
2023-03-07T23:19:07.096Z,26.60
2023-03-07T23:21:40.490Z,26.65
2023-03-07T23:24:13.882Z,28.25
2023-03-07T23:26:46.666Z,29.10
2023-03-07T23:29:19.725Z,25.90
2023-03-07T23:31:52.431Z,26.95
2023-03-07T23:34:25.005Z,27.40
2023-03-07T23:36:57.579Z,28.15
2023-03-07T23:39:30.360Z,29.55
2023-03-07T23:42:03.558Z,29.90
2023-03-07T23:44:36.535Z,28.30
2023-03-07T23:47:10.749Z,27.60
2023-03-07T23:49:43.939Z,29.45
2023-03-07T23:52:16.512Z,28.10
2023-03-07T23:54:49.910Z,28.55
2023-03-07T23:57:22.276Z,30.20
2023-03-07T23:59:55.058Z,30.83
